OI95 weather

Children's Hospital Heliport
Columbus, Ohio, United States

Public forecast

Using degrees Fahrenheit for public forecast. Weather courtesy of forecast.io.

Closest aviation weather report (METAR) to Children's Hospital Heliport

Closest report is John Glenn Columbus International Airport, 4.9 nm (9.1 km) ENE. Retrieved 2020/05/27 20:51 UTC (21 minutes ago):

KCMH 272051Z 14011KT 10SM SCT055 BKN070 BKN200 28/14 A2998 RMK AO2 SLP144 T02830144 56015

Closest aviation forecast (TAF) to Children's Hospital Heliport

Closest forecast is John Glenn Columbus International Airport, 4.9 nm (9.1 km) ENE. Retrieved 2020/05/27 18:22 UTC (3 hours ago):

TAF KCMH 271720Z 2718/2818 16007G15KT P6SM SCT035 BKN120 FM280300 14004KT P6SM FEW028 OVC080 FM280600 14005KT P6SM VCSH SCT028 OVC035 FM281400 17004KT P6SM VCSH SCT022 FM281600 19006KT P6SM SCT050